createdAt,value
2023-01-29T00:02:13.341Z,-1.55
2023-01-29T00:04:39.988Z,-1.59
2023-01-29T00:07:06.514Z,-1.52
2023-01-29T00:09:33.220Z,-1.55
2023-01-29T00:11:59.826Z,-1.61
2023-01-29T00:14:29.268Z,-1.79
2023-01-29T00:16:55.940Z,-1.73
2023-01-29T00:19:25.263Z,-1.69
2023-01-29T00:21:51.874Z,-1.55
2023-01-29T00:24:18.455Z,-1.53
2023-01-29T00:26:45.041Z,-1.58
2023-01-29T00:29:11.697Z,-1.75
2023-01-29T00:31:38.434Z,-1.60
2023-01-29T00:34:05.009Z,-1.56
2023-01-29T00:36:31.563Z,-1.58
2023-01-29T00:39:03.532Z,-1.58
2023-01-29T00:41:51.154Z,-1.69
2023-01-29T00:44:36.298Z,-1.62
2023-01-29T00:47:03.597Z,-1.68
2023-01-29T00:49:33.252Z,-1.83
2023-01-29T00:52:18.288Z,-1.62
2023-01-29T00:54:44.825Z,-1.63
2023-01-29T00:57:11.338Z,-1.64
2023-01-29T00:59:38.087Z,-1.59
2023-01-29T01:02:23.103Z,-1.68
2023-01-29T01:04:49.670Z,-1.69
2023-01-29T01:07:16.299Z,-1.78
2023-01-29T01:10:01.542Z,-1.80
2023-01-29T01:12:28.887Z,-1.74
2023-01-29T01:14:55.511Z,-1.69
2023-01-29T01:17:22.267Z,-1.71
2023-01-29T01:19:48.874Z,-1.67
2023-01-29T01:22:15.481Z,-1.70
2023-01-29T01:24:42.062Z,-1.68
2023-01-29T01:27:08.651Z,-1.68
2023-01-29T01:29:35.188Z,-1.62
2023-01-29T01:32:02.058Z,-1.62
2023-01-29T01:34:29.115Z,-1.80
2023-01-29T01:36:56.403Z,-1.80
2023-01-29T01:39:25.008Z,-1.79
2023-01-29T01:41:53.680Z,-1.63
2023-01-29T01:44:51.140Z,-1.70
2023-01-29T01:47:20.693Z,-1.75
2023-01-29T01:49:47.808Z,-1.81
2023-01-29T01:52:16.574Z,-1.77
2023-01-29T01:54:44.330Z,-1.93
2023-01-29T01:57:16.907Z,-1.85
2023-01-29T01:59:49.032Z,-1.76
2023-01-29T02:02:36.121Z,-1.86
2023-01-29T02:05:21.382Z,-1.89
2023-01-29T02:08:09.251Z,-1.84
2023-01-29T02:10:41.658Z,-1.76
2023-01-29T02:13:09.081Z,-1.90
2023-01-29T02:15:35.719Z,-1.89
2023-01-29T02:18:02.422Z,-2.05
2023-01-29T02:20:32.072Z,-2.16
2023-01-29T02:23:14.272Z,-2.06
2023-01-29T02:25:59.533Z,-2.16
2023-01-29T02:28:29.024Z,-2.26
2023-01-29T02:31:39.716Z,-2.50
2023-01-29T02:34:29.373Z,-2.46
2023-01-29T02:37:10.448Z,-2.54
2023-01-29T02:40:06.534Z,-2.57
2023-01-29T02:42:51.403Z,-2.72
2023-01-29T02:45:32.771Z,-2.64
2023-01-29T02:48:02.055Z,-2.69
2023-01-29T02:50:41.837Z,-2.91
2023-01-29T02:53:15.059Z,-2.89
2023-01-29T02:55:51.815Z,-2.87
2023-01-29T02:58:25.446Z,-2.85
2023-01-29T03:00:54.339Z,-2.92
2023-01-29T03:03:23.404Z,-2.89
2023-01-29T03:06:08.760Z,-2.90
2023-01-29T03:08:57.817Z,-2.96
2023-01-29T03:11:27.112Z,-2.87
2023-01-29T03:14:00.274Z,-2.99
2023-01-29T03:16:34.755Z,-2.88
2023-01-29T03:19:13.845Z,-2.73
2023-01-29T03:21:59.201Z,-2.64
2023-01-29T03:25:00.991Z,-2.66
2023-01-29T03:27:51.527Z,-2.58
2023-01-29T03:30:42.440Z,-2.60
2023-01-29T03:33:12.256Z,-2.76
2023-01-29T03:35:48.413Z,-2.72
2023-01-29T03:38:15.915Z,-2.77
2023-01-29T03:40:42.397Z,-2.94
2023-01-29T03:43:18.913Z,-2.88
2023-01-29T03:46:04.776Z,-2.87
2023-01-29T03:48:40.161Z,-2.97
2023-01-29T03:51:34.430Z,-3.00
2023-01-29T03:54:07.896Z,-3.01
2023-01-29T03:56:40.369Z,-3.01
2023-01-29T03:59:24.553Z,-3.15
2023-01-29T04:01:54.562Z,-3.06
2023-01-29T04:04:26.851Z,-3.03
2023-01-29T04:06:57.717Z,-3.21
2023-01-29T04:09:31.461Z,-3.13
2023-01-29T04:12:09.308Z,-3.13
2023-01-29T04:14:37.474Z,-3.11
2023-01-29T04:17:12.446Z,-3.15
2023-01-29T04:19:39.444Z,-3.23
2023-01-29T04:22:14.067Z,-3.29
2023-01-29T04:24:42.556Z,-3.24
2023-01-29T04:27:46.451Z,-3.26
2023-01-29T04:30:28.204Z,-3.35
2023-01-29T04:33:02.164Z,-3.26
2023-01-29T04:35:43.841Z,-3.22
2023-01-29T04:38:16.061Z,-3.34
2023-01-29T04:40:51.009Z,-3.29
2023-01-29T04:43:32.694Z,-3.38
2023-01-29T04:46:15.416Z,-3.39
2023-01-29T04:48:58.213Z,-3.31
2023-01-29T04:51:46.065Z,-3.40
2023-01-29T04:54:50.977Z,-3.36
2023-01-29T04:57:25.510Z,-3.48
2023-01-29T05:00:05.233Z,-3.40
2023-01-29T05:02:33.643Z,-3.47
2023-01-29T05:05:00.442Z,-3.52
2023-01-29T05:07:30.877Z,-3.43
2023-01-29T05:09:57.788Z,-3.41
2023-01-29T05:12:28.708Z,-3.43
2023-01-29T05:15:00.577Z,-3.38
2023-01-29T05:17:27.937Z,-3.33
2023-01-29T05:19:56.451Z,-3.46
2023-01-29T05:22:23.411Z,-3.42
2023-01-29T05:24:50.796Z,-3.40
2023-01-29T05:27:40.148Z,-3.44
2023-01-29T05:30:07.527Z,-3.50
2023-01-29T05:32:34.109Z,-3.48
2023-01-29T05:35:00.692Z,-3.50
2023-01-29T05:37:27.418Z,-3.57
2023-01-29T05:39:53.936Z,-3.59
2023-01-29T05:42:20.743Z,-3.69
2023-01-29T05:44:47.259Z,-3.53
2023-01-29T05:47:13.976Z,-3.55
2023-01-29T05:49:40.460Z,-3.67
2023-01-29T05:52:06.995Z,-3.86
2023-01-29T05:54:33.735Z,-3.67
2023-01-29T05:57:00.246Z,-3.70
2023-01-29T05:59:26.757Z,-3.70
2023-01-29T06:01:53.333Z,-3.67
2023-01-29T06:04:19.933Z,-3.68
2023-01-29T06:06:46.470Z,-3.71
2023-01-29T06:09:13.128Z,-3.63
2023-01-29T06:11:40.089Z,-3.77
2023-01-29T06:14:06.886Z,-3.94
2023-01-29T06:16:33.611Z,-3.77
2023-01-29T06:19:00.457Z,-3.78
2023-01-29T06:21:26.981Z,-3.83
2023-01-29T06:23:54.223Z,-3.87
2023-01-29T06:26:21.002Z,-3.82
2023-01-29T06:28:51.203Z,-3.53
2023-01-29T06:31:38.492Z,-3.38
2023-01-29T06:34:05.926Z,-3.29
2023-01-29T06:36:32.563Z,-3.12
2023-01-29T06:38:59.126Z,-2.97
2023-01-29T06:41:25.915Z,-2.95
2023-01-29T06:43:52.786Z,-3.01
2023-01-29T06:46:19.319Z,-2.98
2023-01-29T06:48:45.847Z,-3.01
2023-01-29T06:51:12.422Z,-2.83
2023-01-29T06:53:39.717Z,-2.78
2023-01-29T06:56:07.404Z,-2.73
2023-01-29T06:58:36.940Z,-2.80
2023-01-29T07:01:25.537Z,-2.74
2023-01-29T07:04:00.119Z,-2.64
2023-01-29T07:06:30.251Z,-2.58
2023-01-29T07:08:58.001Z,-2.51
2023-01-29T07:11:24.544Z,-2.46
2023-01-29T07:13:51.071Z,-2.56
2023-01-29T07:16:19.175Z,-2.49
2023-01-29T07:18:45.879Z,-2.50
2023-01-29T07:21:12.465Z,-2.36
2023-01-29T07:23:38.994Z,-2.37
2023-01-29T07:26:06.450Z,-2.56
2023-01-29T07:28:37.904Z,-2.49
2023-01-29T07:31:05.139Z,-2.26
2023-01-29T07:33:32.146Z,-2.24
2023-01-29T07:35:58.876Z,-2.21
2023-01-29T07:38:25.697Z,-2.22
2023-01-29T07:40:53.410Z,-2.26
2023-01-29T07:43:20.215Z,-2.15
2023-01-29T07:45:46.823Z,-2.13
2023-01-29T07:48:13.773Z,-2.04
2023-01-29T07:50:41.052Z,-1.99
2023-01-29T07:53:07.647Z,-1.98
2023-01-29T07:55:34.320Z,-2.14
2023-01-29T07:58:02.640Z,-2.05
2023-01-29T08:00:31.164Z,-1.88
2023-01-29T08:03:10.869Z,-1.91
2023-01-29T08:05:37.633Z,-1.88
2023-01-29T08:08:07.384Z,-1.38
2023-01-29T08:10:35.372Z,-1.53
2023-01-29T08:13:02.730Z,-1.46
2023-01-29T08:15:29.597Z,-1.10
2023-01-29T08:20:42.855Z,-1.39
2023-01-29T08:23:14.596Z,-1.19
2023-01-29T08:25:41.461Z,-1.54
2023-01-29T08:28:08.706Z,-1.10
2023-01-29T08:30:35.845Z,-0.73
2023-01-29T08:33:04.277Z,-0.77
2023-01-29T08:35:31.660Z,-0.60
2023-01-29T08:38:01.074Z,-0.80
2023-01-29T08:40:28.860Z,-1.21
2023-01-29T08:43:03.595Z,-0.87
2023-01-29T08:45:34.211Z,-0.98
2023-01-29T08:48:00.884Z,-1.32
2023-01-29T08:50:27.536Z,-1.37
2023-01-29T08:52:59.071Z,-1.12
2023-01-29T08:55:26.652Z,-1.02
2023-01-29T08:57:53.247Z,-0.79
2023-01-29T09:00:20.439Z,-0.93
2023-01-29T09:02:47.158Z,-0.88
2023-01-29T09:05:13.819Z,-0.60
2023-01-29T09:07:40.416Z,-0.58
2023-01-29T09:10:08.114Z,-0.74
2023-01-29T09:12:34.764Z,-0.56
2023-01-29T09:15:01.279Z,-0.73
2023-01-29T09:17:27.799Z,-0.53
2023-01-29T09:19:54.404Z,-0.65
2023-01-29T09:22:21.099Z,-0.38
2023-01-29T09:24:47.638Z,-0.60
2023-01-29T09:27:14.250Z,-0.50
2023-01-29T09:29:40.783Z,-0.73
2023-01-29T09:32:07.530Z,-0.64
2023-01-29T09:34:35.182Z,-0.07
2023-01-29T09:37:01.820Z,0.14
2023-01-29T09:39:28.493Z,0.11
2023-01-29T09:42:14.893Z,-0.10
2023-01-29T09:45:04.705Z,-0.43
2023-01-29T09:47:34.685Z,-0.33
2023-01-29T09:50:07.538Z,-0.46
2023-01-29T09:53:07.497Z,-0.16
2023-01-29T09:55:40.054Z,0.03
2023-01-29T09:58:37.530Z,-0.27
2023-01-29T10:01:19.308Z,0.37
2023-01-29T10:03:57.994Z,0.06
2023-01-29T10:07:16.173Z,0.24
2023-01-29T10:10:07.805Z,0.09
2023-01-29T10:12:49.982Z,0.52
2023-01-29T10:15:30.660Z,-0.14
2023-01-29T10:18:15.958Z,0.11
2023-01-29T10:21:39.612Z,0.37
2023-01-29T10:24:25.085Z,0.53
2023-01-29T10:26:52.767Z,0.68
2023-01-29T10:29:22.066Z,0.86
2023-01-29T10:31:57.098Z,0.99
2023-01-29T10:34:30.985Z,0.82
2023-01-29T10:36:57.537Z,0.66
2023-01-29T10:39:26.445Z,0.58
2023-01-29T10:42:14.443Z,0.77
2023-01-29T10:45:15.577Z,0.43
2023-01-29T10:47:42.521Z,0.29
2023-01-29T10:50:33.880Z,0.29
2023-01-29T10:53:22.317Z,0.50
2023-01-29T10:55:56.815Z,0.58
2023-01-29T10:58:41.818Z,0.58
2023-01-29T11:01:10.231Z,0.64
2023-01-29T11:03:37.069Z,0.52
2023-01-29T11:06:13.003Z,0.67
2023-01-29T11:08:51.322Z,0.85
2023-01-29T11:11:22.264Z,0.39
2023-01-29T11:13:57.744Z,0.77
2023-01-29T11:16:25.568Z,0.65
2023-01-29T11:18:59.494Z,0.95
2023-01-29T11:21:27.757Z,0.79
2023-01-29T11:24:17.562Z,1.14
2023-01-29T11:26:48.045Z,1.11
2023-01-29T11:29:39.038Z,0.95
2023-01-29T11:32:13.880Z,0.64
2023-01-29T11:35:02.319Z,0.91
2023-01-29T11:37:35.492Z,0.70
2023-01-29T11:40:22.693Z,0.87
2023-01-29T11:42:50.348Z,1.01
2023-01-29T11:45:22.672Z,1.42
2023-01-29T11:47:56.917Z,1.42
2023-01-29T11:50:34.013Z,1.07
2023-01-29T11:53:01.564Z,1.32
2023-01-29T11:55:49.928Z,1.35
2023-01-29T11:58:23.268Z,1.17
2023-01-29T12:00:53.628Z,1.15
2023-01-29T12:03:33.705Z,1.12
2023-01-29T12:06:17.752Z,1.19
2023-01-29T12:08:44.412Z,1.39
2023-01-29T12:11:35.882Z,1.12
2023-01-29T12:14:05.418Z,1.29
2023-01-29T12:17:01.291Z,1.31
2023-01-29T12:19:46.049Z,1.72
2023-01-29T12:22:42.902Z,1.63
2023-01-29T12:25:40.420Z,1.80
2023-01-29T12:28:20.100Z,1.84
2023-01-29T12:30:46.560Z,1.33
2023-01-29T12:33:22.218Z,1.68
2023-01-29T12:35:57.485Z,1.54
2023-01-29T12:38:24.298Z,1.34
2023-01-29T12:40:56.786Z,1.25
2023-01-29T12:43:42.232Z,1.36
2023-01-29T12:46:21.637Z,1.75
2023-01-29T12:48:50.591Z,1.60
2023-01-29T12:51:20.398Z,1.67
2023-01-29T12:53:52.905Z,1.96
2023-01-29T12:56:28.560Z,1.59
2023-01-29T12:58:57.246Z,2.08
2023-01-29T13:01:32.039Z,1.60
2023-01-29T13:04:19.797Z,1.42
2023-01-29T13:07:03.083Z,1.73
2023-01-29T13:09:33.266Z,2.04
2023-01-29T13:12:05.241Z,1.74
2023-01-29T13:15:00.459Z,2.20
2023-01-29T13:17:36.196Z,2.20
2023-01-29T13:20:16.434Z,1.75
2023-01-29T13:22:46.202Z,2.19
2023-01-29T13:25:16.789Z,1.55
2023-01-29T13:27:45.872Z,1.88
2023-01-29T13:30:25.925Z,1.86
2023-01-29T13:32:54.864Z,1.97
2023-01-29T13:35:23.746Z,1.99
2023-01-29T13:37:53.757Z,1.94
2023-01-29T13:40:29.653Z,1.80
2023-01-29T13:42:59.877Z,1.76
2023-01-29T13:45:35.782Z,1.82
2023-01-29T13:48:12.041Z,1.76
2023-01-29T13:50:41.254Z,2.00
2023-01-29T13:53:20.096Z,1.77
2023-01-29T13:55:46.669Z,1.72
2023-01-29T13:58:17.810Z,1.63
2023-01-29T14:00:44.269Z,1.57
2023-01-29T14:03:13.752Z,1.56
2023-01-29T14:06:02.346Z,1.65
2023-01-29T14:08:34.968Z,1.50
2023-01-29T14:11:14.987Z,1.41
2023-01-29T14:13:49.919Z,1.27
2023-01-29T14:16:16.472Z,1.37
2023-01-29T14:18:48.977Z,1.33
2023-01-29T14:21:25.104Z,1.22
2023-01-29T14:23:53.591Z,1.38
2023-01-29T14:26:20.210Z,1.38
2023-01-29T14:29:16.476Z,1.32
2023-01-29T14:31:52.971Z,1.30
2023-01-29T14:34:24.133Z,1.41
2023-01-29T14:36:55.633Z,1.31
2023-01-29T14:39:24.922Z,1.37
2023-01-29T14:41:52.642Z,1.42
2023-01-29T14:44:58.122Z,1.37
2023-01-29T14:47:27.757Z,1.25
2023-01-29T14:49:56.340Z,1.15
2023-01-29T14:52:42.454Z,0.94
2023-01-29T14:55:19.264Z,1.01
2023-01-29T14:57:46.111Z,1.06
2023-01-29T15:00:24.102Z,0.91
2023-01-29T15:03:01.381Z,0.98
2023-01-29T15:05:32.824Z,1.00
2023-01-29T15:08:13.985Z,0.83
2023-01-29T15:10:46.112Z,0.87
2023-01-29T15:13:32.711Z,0.89
2023-01-29T15:16:13.347Z,0.80
2023-01-29T15:18:42.495Z,0.75
2023-01-29T15:21:14.384Z,0.73
2023-01-29T15:23:41.326Z,0.57
2023-01-29T15:26:16.133Z,0.70
2023-01-29T15:28:47.141Z,0.72
2023-01-29T15:31:18.458Z,0.68
2023-01-29T15:33:47.978Z,0.61
2023-01-29T15:36:31.603Z,0.51
2023-01-29T15:39:13.079Z,0.39
2023-01-29T15:41:39.685Z,0.25
2023-01-29T15:44:24.759Z,0.27
2023-01-29T15:46:54.914Z,0.13
2023-01-29T15:49:39.504Z,0.12
2023-01-29T15:52:12.108Z,-0.01
2023-01-29T15:54:39.022Z,0.01
2023-01-29T15:57:06.263Z,0.05
2023-01-29T15:59:39.025Z,0.08
2023-01-29T16:02:37.402Z,0.09
2023-01-29T16:05:07.118Z,0.12
2023-01-29T16:07:36.030Z,0.15
2023-01-29T16:10:03.324Z,0.08
2023-01-29T16:12:32.139Z,0.19
2023-01-29T16:14:59.569Z,0.21
2023-01-29T16:17:30.411Z,0.21
2023-01-29T16:19:59.303Z,0.19
2023-01-29T16:22:32.069Z,0.21
2023-01-29T16:25:03.529Z,0.23
2023-01-29T16:27:31.287Z,0.19
2023-01-29T16:29:58.027Z,0.20
2023-01-29T16:32:24.802Z,0.22
2023-01-29T16:34:57.911Z,0.21
2023-01-29T16:37:30.333Z,0.20
2023-01-29T16:39:57.759Z,0.20
2023-01-29T16:42:29.719Z,0.24
2023-01-29T16:45:05.307Z,0.12
2023-01-29T16:47:34.100Z,0.24
2023-01-29T16:50:36.087Z,0.23
2023-01-29T16:53:23.108Z,0.20
2023-01-29T16:55:51.331Z,0.21
2023-01-29T16:58:28.196Z,0.20
2023-01-29T17:01:09.846Z,0.19
2023-01-29T17:03:38.283Z,0.15
2023-01-29T17:06:12.635Z,0.16
2023-01-29T17:08:42.459Z,0.13
2023-01-29T17:11:24.421Z,0.16
2023-01-29T17:13:51.092Z,0.13
2023-01-29T17:16:25.712Z,0.15
2023-01-29T17:18:52.593Z,0.16
2023-01-29T17:21:19.503Z,0.18
2023-01-29T17:23:46.232Z,0.12
2023-01-29T17:26:14.527Z,0.10
2023-01-29T17:28:42.134Z,0.11
2023-01-29T17:31:09.250Z,0.13
2023-01-29T17:33:37.711Z,0.05
2023-01-29T17:36:04.545Z,0.11
2023-01-29T17:38:31.879Z,0.04
2023-01-29T17:41:03.690Z,0.10
2023-01-29T17:43:30.247Z,0.10
2023-01-29T17:45:56.943Z,0.10
2023-01-29T17:48:29.742Z,0.03
2023-01-29T17:51:03.697Z,-0.05
2023-01-29T17:53:44.302Z,0.01
2023-01-29T17:56:23.481Z,0.02
2023-01-29T17:58:50.071Z,-0.01
2023-01-29T18:01:16.631Z,-0.05
2023-01-29T18:03:43.228Z,-0.07
2023-01-29T18:06:12.662Z,-0.06
2023-01-29T18:08:39.974Z,-0.10
2023-01-29T18:11:07.423Z,-0.15
2023-01-29T18:13:36.112Z,-0.16
2023-01-29T18:16:03.000Z,-0.11
2023-01-29T18:18:29.698Z,-0.23
2023-01-29T18:20:56.251Z,-0.17
2023-01-29T18:23:22.905Z,-0.22
2023-01-29T18:25:49.474Z,-0.25
2023-01-29T18:28:17.650Z,-0.19
2023-01-29T18:30:47.189Z,-0.22
2023-01-29T18:33:15.173Z,-0.25
2023-01-29T18:35:44.125Z,-0.20
2023-01-29T18:38:10.782Z,-0.22
2023-01-29T18:40:37.361Z,-0.26
2023-01-29T18:43:04.282Z,-0.23
2023-01-29T18:45:31.325Z,-0.25
2023-01-29T18:47:57.941Z,-0.26
2023-01-29T18:50:26.257Z,-0.31
2023-01-29T18:52:54.112Z,-0.46
2023-01-29T18:55:21.418Z,-0.30
2023-01-29T18:58:27.272Z,-0.27
2023-01-29T19:00:34.858Z,-0.36
2023-01-29T19:03:04.322Z,-0.39
2023-01-29T19:05:33.591Z,-0.39
2023-01-29T19:08:00.231Z,-0.38
2023-01-29T19:10:26.759Z,-0.35
2023-01-29T19:12:53.295Z,-0.37
2023-01-29T19:15:21.978Z,-0.39
2023-01-29T19:17:49.929Z,-0.40
2023-01-29T19:20:19.354Z,-0.45
2023-01-29T19:22:46.039Z,-0.51
2023-01-29T19:25:12.850Z,-0.51
2023-01-29T19:27:39.561Z,-0.51
2023-01-29T19:30:07.400Z,-0.53
2023-01-29T19:32:34.657Z,-0.51
2023-01-29T19:35:01.271Z,-0.52
2023-01-29T19:37:30.489Z,-0.54
2023-01-29T19:39:57.117Z,-0.53
2023-01-29T19:42:23.827Z,-0.50
2023-01-29T19:44:52.064Z,-0.51
2023-01-29T19:47:18.988Z,-0.51
2023-01-29T19:49:45.658Z,-0.54
2023-01-29T19:52:49.892Z,-0.51
2023-01-29T19:55:19.122Z,-0.53
2023-01-29T19:57:46.097Z,-0.58
2023-01-29T20:00:14.827Z,-0.62
2023-01-29T20:02:41.402Z,-0.62
2023-01-29T20:05:12.977Z,-0.65
2023-01-29T20:07:41.146Z,-0.76
2023-01-29T20:10:11.284Z,-0.81
2023-01-29T20:12:38.216Z,-0.85
2023-01-29T20:15:05.101Z,-0.94
2023-01-29T20:17:31.913Z,-0.96
2023-01-29T20:19:58.458Z,-1.09
2023-01-29T20:22:26.236Z,-1.16
2023-01-29T20:24:52.867Z,-1.12
2023-01-29T20:27:19.429Z,-1.19
2023-01-29T20:29:46.663Z,-1.20
2023-01-29T20:32:14.508Z,-1.32
2023-01-29T20:34:41.592Z,-1.29
2023-01-29T20:37:08.132Z,-1.37
2023-01-29T20:39:34.705Z,-1.56
2023-01-29T20:42:01.483Z,-1.46
2023-01-29T20:44:28.047Z,-1.50
2023-01-29T20:46:54.894Z,-1.54
2023-01-29T20:49:21.806Z,-1.39
2023-01-29T20:51:48.380Z,-1.50
2023-01-29T20:54:15.158Z,-1.42
2023-01-29T20:56:47.148Z,-1.40
2023-01-29T20:59:14.351Z,-1.51
2023-01-29T21:01:42.037Z,-1.65
2023-01-29T21:04:08.870Z,-1.69
2023-01-29T21:06:35.470Z,-1.71
2023-01-29T21:09:02.024Z,-1.76
2023-01-29T21:11:28.688Z,-1.69
2023-01-29T21:13:57.787Z,-1.70
2023-01-29T21:16:26.300Z,-1.78
2023-01-29T21:18:57.055Z,-1.72
2023-01-29T21:21:24.058Z,-1.63
2023-01-29T21:23:50.577Z,-1.81
2023-01-29T21:26:17.201Z,-1.67
2023-01-29T21:28:43.756Z,-1.83
2023-01-29T21:31:12.391Z,-1.68
2023-01-29T21:33:38.933Z,-1.61
2023-01-29T21:36:06.208Z,-1.50
2023-01-29T21:38:33.048Z,-1.42
2023-01-29T21:41:01.413Z,-1.40
2023-01-29T21:43:27.998Z,-1.37
2023-01-29T21:45:56.508Z,-1.38
2023-01-29T21:48:23.253Z,-1.37
2023-01-29T21:50:50.353Z,-1.30
2023-01-29T21:53:18.099Z,-1.38
2023-01-29T21:55:45.913Z,-1.29
2023-01-29T21:58:14.413Z,-1.31
2023-01-29T22:00:41.185Z,-1.26
2023-01-29T22:03:07.786Z,-1.36
2023-01-29T22:05:34.802Z,-1.39
2023-01-29T22:08:01.578Z,-1.54
2023-01-29T22:10:28.894Z,-1.44
2023-01-29T22:12:55.695Z,-1.44
2023-01-29T22:15:23.880Z,-1.45
2023-01-29T22:17:50.923Z,-1.47
2023-01-29T22:20:18.945Z,-1.42
2023-01-29T22:22:45.750Z,-1.44
2023-01-29T22:25:12.423Z,-1.47
2023-01-29T22:27:38.998Z,-1.50
2023-01-29T22:30:06.241Z,-1.42
2023-01-29T22:32:33.059Z,-1.49
2023-01-29T22:34:59.687Z,-1.40
2023-01-29T22:37:26.218Z,-1.37
2023-01-29T22:39:52.825Z,-1.33
2023-01-29T22:42:20.733Z,-1.36
2023-01-29T22:44:48.401Z,-1.29
2023-01-29T22:47:15.298Z,-1.26
2023-01-29T22:49:41.839Z,-1.26
2023-01-29T22:52:11.162Z,-1.28
2023-01-29T22:54:42.757Z,-1.24
2023-01-29T22:57:13.712Z,-1.32
2023-01-29T22:59:40.909Z,-1.32
2023-01-29T23:02:08.317Z,-1.33
2023-01-29T23:04:34.935Z,-1.42
2023-01-29T23:07:01.593Z,-1.40
2023-01-29T23:09:28.620Z,-1.35
2023-01-29T23:11:55.163Z,-1.39
2023-01-29T23:14:21.816Z,-1.27
2023-01-29T23:16:48.367Z,-1.30
2023-01-29T23:19:14.921Z,-1.24
2023-01-29T23:21:41.491Z,-1.22
2023-01-29T23:24:08.756Z,-1.20
2023-01-29T23:26:53.844Z,-1.18
2023-01-29T23:29:20.483Z,-1.16
2023-01-29T23:31:47.378Z,-1.18
2023-01-29T23:34:14.274Z,-1.17
2023-01-29T23:36:41.410Z,-1.17
2023-01-29T23:39:08.480Z,-1.11
2023-01-29T23:41:35.329Z,-1.12
2023-01-29T23:44:01.959Z,-1.10
2023-01-29T23:46:28.525Z,-1.04
2023-01-29T23:48:55.060Z,-1.09
2023-01-29T23:51:21.617Z,-1.02
2023-01-29T23:53:48.169Z,-1.02
2023-01-29T23:56:14.818Z,-1.07
2023-01-29T23:58:41.408Z,-0.96
